Time;durP1;ratioP1;P1;durP2;ratioP2;P2;SDS_P1;SDS_P2;PMS_P1;PMS_P2;Temp;Humidity;BMP_temperature;BMP_pressure;BME280_temperature;BME280_humidity;BME280_pressure;Samples;Min_cycle;Max_cycle;Signal;HPM_P1;HPM_P2
2021/10/22 00:00:12;;;;;;;;;;;;;;;;;;4842026;29;19935;-90
2021/10/22 00:02:44;;;;;;;;;;;;;;;;;;4857727;29;20403;-83
2021/10/22 00:05:13;;;;;;;;;;;;;;;;;;4852765;29;20101;-86
2021/10/22 00:07:42;;;;;;;;;;;;;;;;;;4842420;29;19944;-89
2021/10/22 00:10:10;;;;;;;;;;;;;;;;;;4837734;29;19935;-86
2021/10/22 00:12:39;;;;;;;;;;;;;;;;;;4839393;29;19928;-87
2021/10/22 00:15:08;;;;;;;;;;;;;;;;;;4837985;29;20206;-88
2021/10/22 00:17:37;;;;;;;;;;;;;;;;;;4840358;29;19928;-89
2021/10/22 00:20:08;;;;;;;;;;;;;;;;;;4842567;29;19928;-87
2021/10/22 00:22:37;;;;;;;;;;;;;;;;;;4850106;29;19928;-89
2021/10/22 00:25:05;;;;;;;;;;;;;;;;;;4841982;29;20299;-87
2021/10/22 00:27:34;;;;;;;;;;;;;;;;;;4864901;29;19932;-86
2021/10/22 00:30:02;;;;;;;;;;;;;;;;;;4857356;29;20400;-84
2021/10/22 00:32:31;;;;;;;;;;;;;;;;;;4841195;29;20311;-87
2021/10/22 00:34:59;;;;;;;;;;;;;;;;;;4854176;29;19935;-89
2021/10/22 00:37:29;;;;;;;;;;;;;;;;;;4855691;29;19937;-87
2021/10/22 00:39:58;;;;;;;;;;;;;;;;;;4855421;29;19937;-82
2021/10/22 00:42:27;;;;;;;;;;;;;;;;;;4861920;29;19928;-91
2021/10/22 00:44:55;;;;;;;;;;;;;;;;;;4842755;29;20318;-88
2021/10/22 00:47:23;;;;;;;;;;;;;;;;;;4851494;29;19951;-88
2021/10/22 00:49:51;;;;;;;;;;;;;;;;;;4853536;29;19935;-89
2021/10/22 00:52:21;;;;;;;;;;;;;;;;;;4854825;29;19935;-88
2021/10/22 00:54:54;;;;;;;;;;;;;;;;;;4857322;29;19928;-89
2021/10/22 00:57:22;;;;;;;;;;;;;;;;;;4852576;29;19929;-87
2021/10/22 00:59:50;;;;;;;;;;;;;;;;;;4855003;29;20396;-87
2021/10/22 01:02:20;;;;;;;;;;;;;;;;;;4832975;29;19928;-89
2021/10/22 01:04:48;;;;;;;;;;;;;;;;;;4841706;29;20319;-87
2021/10/22 01:07:17;;;;;;;;;;;;;;;;;;4838260;29;19933;-88
2021/10/22 01:09:46;;;;;;;;;;;;;;;;;;4858653;29;20265;-89
2021/10/22 01:12:16;;;;;;;;;;;;;;;;;;4873287;29;19934;-92
2021/10/22 01:14:44;;;;;;;;;;;;;;;;;;4884088;29;19923;-93
2021/10/22 01:17:39;;;;;;;;;;;;;;;;;;4846293;29;19928;-87
2021/10/22 01:20:09;;;;;;;;;;;;;;;;;;4817817;29;20108;-87
2021/10/22 01:22:39;;;;;;;;;;;;;;;;;;4835500;29;19928;-88
2021/10/22 01:25:08;;;;;;;;;;;;;;;;;;4848666;29;19935;-86
2021/10/22 01:27:36;;;;;;;;;;;;;;;;;;4858835;29;19944;-91
2021/10/22 01:30:06;;;;;;;;;;;;;;;;;;4833402;29;20596;-87
2021/10/22 01:32:35;;;;;;;;;;;;;;;;;;4851068;29;19932;-89
2021/10/22 01:35:03;;;;;;;;;;;;;;;;;;4842029;29;19936;-87
2021/10/22 01:37:32;;;;;;;;;;;;;;;;;;4864483;29;19928;-87
2021/10/22 01:40:01;;;;;;;;;;;;;;;;;;4847425;29;19935;-87
2021/10/22 01:42:31;;;;;;;;;;;;;;;;;;4846071;29;19928;-90
2021/10/22 01:44:59;;;;;;;;;;;;;;;;;;4847214;29;20319;-89
2021/10/22 01:47:27;;;;;;;;;;;;;;;;;;4849965;29;19932;-88
2021/10/22 01:49:56;;;;;;;;;;;;;;;;;;4840491;29;19933;-89
2021/10/22 01:52:24;;;;;;;;;;;;;;;;;;4851929;29;19951;-88
2021/10/22 01:54:52;;;;;;;;;;;;;;;;;;4842647;29;19928;-87
2021/10/22 01:57:22;;;;;;;;;;;;;;;;;;4858149;29;20429;-88
2021/10/22 01:59:50;;;;;;;;;;;;;;;;;;4854022;29;19932;-87
2021/10/22 02:02:19;;;;;;;;;;;;;;;;;;4837522;29;19929;-87
2021/10/22 02:04:48;;;;;;;;;;;;;;;;;;4859328;29;19936;-90
2021/10/22 02:07:16;;;;;;;;;;;;;;;;;;4862438;29;19932;-90
2021/10/22 02:09:44;;;;;;;;;;;;;;;;;;4856150;29;19928;-88
2021/10/22 02:12:12;;;;;;;;;;;;;;;;;;4852312;29;19935;-87
2021/10/22 02:14:42;;;;;;;;;;;;;;;;;;4827489;29;19936;-86
2021/10/22 02:17:10;;;;;;;;;;;;;;;;;;4843214;29;19935;-89
2021/10/22 02:19:39;;;;;;;;;;;;;;;;;;4846119;29;19935;-87
2021/10/22 02:22:07;;;;;;;;;;;;;;;;;;4858109;29;19928;-88
2021/10/22 02:24:36;;;;;;;;;;;;;;;;;;4843019;29;19932;-88
2021/10/22 02:27:04;;;;;;;;;;;;;;;;;;4842842;29;20323;-90
2021/10/22 02:29:32;;;;;;;;;;;;;;;;;;4858180;29;19940;-89
2021/10/22 02:32:02;;;;;;;;;;;;;;;;;;4858692;29;19935;-88
2021/10/22 02:34:31;;;;;;;;;;;;;;;;;;4844377;29;19928;-90
2021/10/22 02:36:59;;;;;;;;;;;;;;;;;;4825413;29;20285;-87
2021/10/22 02:39:32;;;;;;;;;;;;;;;;;;4825025;29;19928;-89
2021/10/22 02:42:01;;;;;;;;;;;;;;;;;;4824553;29;19936;-90
2021/10/22 02:44:29;;;;;;;;;;;;;;;;;;4824794;29;19951;-90
2021/10/22 02:46:57;;;;;;;;;;;;;;;;;;4839961;29;19935;-87
2021/10/22 02:49:27;;;;;;;;;;;;;;;;;;4824509;29;20414;-85
2021/10/22 02:51:56;;;;;;;;;;;;;;;;;;4839767;29;19929;-89
2021/10/22 02:54:25;;;;;;;;;;;;;;;;;;4839590;29;19928;-86
2021/10/22 02:56:53;;;;;;;;;;;;;;;;;;4841799;29;19928;-91
2021/10/22 02:59:21;;;;;;;;;;;;;;;;;;4857888;29;20414;-90
2021/10/22 03:01:50;;;;;;;;;;;;;;;;;;4857714;29;20384;-85
2021/10/22 03:04:18;;;;;;;;;;;;;;;;;;4858064;29;19928;-88
2021/10/22 03:06:48;;;;;;;;;;;;;;;;;;4857567;29;19928;-88
2021/10/22 03:09:16;;;;;;;;;;;;;;;;;;4842510;29;20399;-85
2021/10/22 03:11:45;;;;;;;;;;;;;;;;;;4842651;29;19928;-87
2021/10/22 03:14:20;;;;;;;;;;;;;;;;;;4842865;29;19929;-90
2021/10/22 03:16:49;;;;;;;;;;;;;;;;;;4842586;29;20403;-87
2021/10/22 03:19:17;;;;;;;;;;;;;;;;;;4845626;29;19936;-90
2021/10/22 03:21:45;;;;;;;;;;;;;;;;;;4845567;29;19935;-89
2021/10/22 03:24:15;;;;;;;;;;;;;;;;;;4845827;29;20411;-87
2021/10/22 03:26:44;;;;;;;;;;;;;;;;;;4843928;29;19932;-90
2021/10/22 03:29:13;;;;;;;;;;;;;;;;;;4827264;29;19935;-90
2021/10/22 03:31:41;;;;;;;;;;;;;;;;;;4826742;29;20019;-90
2021/10/22 03:34:09;;;;;;;;;;;;;;;;;;4845009;29;19919;-94
2021/10/22 03:36:38;;;;;;;;;;;;;;;;;;4851722;29;19936;-91
2021/10/22 03:39:06;;;;;;;;;;;;;;;;;;4844803;29;19936;-86
2021/10/22 03:41:36;;;;;;;;;;;;;;;;;;4826637;29;19936;-91
2021/10/22 03:44:04;;;;;;;;;;;;;;;;;;4826965;29;19928;-88
2021/10/22 03:46:33;;;;;;;;;;;;;;;;;;4841948;29;19936;-91
2021/10/22 03:49:01;;;;;;;;;;;;;;;;;;4860309;29;19951;-90
2021/10/22 03:51:29;;;;;;;;;;;;;;;;;;4845234;29;19928;-90
2021/10/22 03:53:57;;;;;;;;;;;;;;;;;;4860557;29;20442;-86
2021/10/22 03:56:26;;;;;;;;;;;;;;;;;;4860524;29;19928;-86
2021/10/22 03:58:56;;;;;;;;;;;;;;;;;;4860360;29;19928;-86
2021/10/22 04:01:24;;;;;;;;;;;;;;;;;;4860656;29;19928;-89
2021/10/22 04:03:52;;;;;;;;;;;;;;;;;;4844971;29;19928;-88
2021/10/22 04:06:20;;;;;;;;;;;;;;;;;;4845109;29;19932;-88
2021/10/22 04:08:49;;;;;;;;;;;;;;;;;;4858777;29;19928;-85
2021/10/22 04:11:17;;;;;;;;;;;;;;;;;;4826755;29;19928;-85
2021/10/22 04:13:45;;;;;;;;;;;;;;;;;;4826746;29;19928;-89
2021/10/22 04:16:15;;;;;;;;;;;;;;;;;;4856818;29;19928;-89
2021/10/22 04:18:44;;;;;;;;;;;;;;;;;;4826485;29;19928;-89
2021/10/22 04:21:12;;;;;;;;;;;;;;;;;;4841754;29;19935;-87
2021/10/22 04:23:40;;;;;;;;;;;;;;;;;;4826238;29;19936;-85
2021/10/22 04:26:08;;;;;;;;;;;;;;;;;;4826687;29;19932;-89
2021/10/22 04:28:37;;;;;;;;;;;;;;;;;;4841042;29;19952;-89
2021/10/22 04:31:05;;;;;;;;;;;;;;;;;;4826298;29;20037;-88
2021/10/22 04:33:35;;;;;;;;;;;;;;;;;;4826577;29;19935;-88
2021/10/22 04:36:03;;;;;;;;;;;;;;;;;;4826052;29;19928;-90
2021/10/22 04:41:17;;;;;;;;;;;;;;;;;;4844438;29;20289;-88
2021/10/22 04:43:48;;;;;;;;;;;;;;;;;;4846133;29;20197;-88
2021/10/22 04:46:17;;;;;;;;;;;;;;;;;;4827144;29;19935;-88
2021/10/22 04:48:47;;;;;;;;;;;;;;;;;;4842078;29;20311;-85
2021/10/22 04:51:15;;;;;;;;;;;;;;;;;;4842652;29;19936;-88
2021/10/22 04:53:43;;;;;;;;;;;;;;;;;;4842543;29;20315;-86
2021/10/22 04:56:12;;;;;;;;;;;;;;;;;;4842345;29;19928;-88
2021/10/22 04:58:40;;;;;;;;;;;;;;;;;;4836407;29;20391;-88
2021/10/22 05:01:09;;;;;;;;;;;;;;;;;;4844368;29;19929;-90
2021/10/22 05:03:37;;;;;;;;;;;;;;;;;;4859700;29;19932;-91
2021/10/22 05:06:07;;;;;;;;;;;;;;;;;;4856631;29;19936;-90
2021/10/22 05:08:35;;;;;;;;;;;;;;;;;;4840687;29;20292;-89
2021/10/22 05:11:04;;;;;;;;;;;;;;;;;;4838607;29;20423;-90
2021/10/22 05:13:32;;;;;;;;;;;;;;;;;;4859496;29;19935;-88
2021/10/22 05:16:01;;;;;;;;;;;;;;;;;;4859373;29;20414;-88
2021/10/22 05:18:31;;;;;;;;;;;;;;;;;;4859020;29;19939;-91
2021/10/22 05:21:00;;;;;;;;;;;;;;;;;;4859611;29;20399;-88
2021/10/22 05:23:30;;;;;;;;;;;;;;;;;;4844165;29;20335;-89
2021/10/22 05:25:58;;;;;;;;;;;;;;;;;;4845007;29;20383;-89
2021/10/22 05:28:27;;;;;;;;;;;;;;;;;;4860099;29;19928;-88
2021/10/22 05:30:56;;;;;;;;;;;;;;;;;;4845300;29;20404;-91
2021/10/22 05:33:24;;;;;;;;;;;;;;;;;;4844439;29;19935;-90
2021/10/22 05:35:52;;;;;;;;;;;;;;;;;;4859656;29;19935;-88
2021/10/22 05:38:21;;;;;;;;;;;;;;;;;;4860175;29;19943;-90
2021/10/22 05:40:50;;;;;;;;;;;;;;;;;;4845027;29;19928;-88
2021/10/22 05:43:19;;;;;;;;;;;;;;;;;;4859107;29;19928;-90
2021/10/22 05:45:47;;;;;;;;;;;;;;;;;;4845573;29;20336;-90
2021/10/22 05:48:15;;;;;;;;;;;;;;;;;;4859664;29;19943;-89
2021/10/22 05:50:44;;;;;;;;;;;;;;;;;;4827181;29;20315;-87
2021/10/22 05:53:12;;;;;;;;;;;;;;;;;;4844083;29;19935;-90
2021/10/22 05:55:40;;;;;;;;;;;;;;;;;;4863247;29;19936;-94
2021/10/22 05:58:10;;;;;;;;;;;;;;;;;;4864624;29;19917;-95
2021/10/22 06:00:41;;;;;;;;;;;;;;;;;;4844526;29;19935;-90
2021/10/22 06:03:10;;;;;;;;;;;;;;;;;;4854037;29;19928;-91
2021/10/22 06:05:39;;;;;;;;;;;;;;;;;;4847857;29;20347;-88
2021/10/22 06:08:09;;;;;;;;;;;;;;;;;;4848833;29;19932;-91
2021/10/22 06:10:37;;;;;;;;;;;;;;;;;;4844993;29;19935;-91
2021/10/22 06:13:06;;;;;;;;;;;;;;;;;;4839432;29;20315;-89
2021/10/22 06:15:35;;;;;;;;;;;;;;;;;;4849773;29;19928;-88
2021/10/22 06:18:04;;;;;;;;;;;;;;;;;;4842405;29;20319;-85
2021/10/22 06:20:42;;;;;;;;;;;;;;;;;;4842781;29;19928;-88
2021/10/22 06:25:56;;;;;;;;;;;;;;;;;;4857552;29;19928;-89
2021/10/22 06:28:24;;;;;;;;;;;;;;;;;;4841728;29;19928;-89
2021/10/22 06:30:54;;;;;;;;;;;;;;;;;;4845542;29;19928;-89
2021/10/22 06:33:23;;;;;;;;;;;;;;;;;;4857867;29;19928;-89
2021/10/22 06:35:53;;;;;;;;;;;;;;;;;;4857172;29;19932;-87
2021/10/22 06:38:22;;;;;;;;;;;;;;;;;;4835969;29;19954;-90
2021/10/22 06:40:53;;;;;;;;;;;;;;;;;;4834504;29;19936;-91
2021/10/22 06:43:21;;;;;;;;;;;;;;;;;;4841366;29;20308;-88
2021/10/22 06:45:50;;;;;;;;;;;;;;;;;;4842282;29;20400;-87
2021/10/22 06:48:21;;;;;;;;;;;;;;;;;;4845812;29;20253;-91
2021/10/22 06:50:50;;;;;;;;;;;;;;;;;;4843072;29;19928;-91
2021/10/22 06:53:20;;;;;;;;;;;;;;;;;;4845313;29;19928;-89
2021/10/22 06:55:49;;;;;;;;;;;;;;;;;;4836070;29;19939;-91
2021/10/22 06:58:18;;;;;;;;;;;;;;;;;;4839591;29;20295;-87
2021/10/22 07:00:49;;;;;;;;;;;;;;;;;;4845681;29;19943;-91
2021/10/22 07:03:20;;;;;;;;;;;;;;;;;;4861227;29;19935;-90
2021/10/22 07:07:14;;;;;;;;;;;;;;;;;;4843039;29;20403;-91
2021/10/22 07:08:52;;;;;;;;;;;;;;;;;;4852747;29;20332;-88
2021/10/22 07:11:20;;;;;;;;;;;;;;;;;;4845979;29;19932;-91
2021/10/22 07:13:52;;;;;;;;;;;;;;;;;;4845565;29;19928;-88
2021/10/22 07:16:21;;;;;;;;;;;;;;;;;;4845614;29;19935;-93
2021/10/22 07:18:50;;;;;;;;;;;;;;;;;;4845352;29;20307;-89
2021/10/22 07:21:20;;;;;;;;;;;;;;;;;;4860821;29;19928;-92
2021/10/22 07:23:49;;;;;;;;;;;;;;;;;;4845602;29;19936;-88
2021/10/22 07:26:18;;;;;;;;;;;;;;;;;;4861285;29;20149;-89
2021/10/22 07:28:46;;;;;;;;;;;;;;;;;;4861026;29;20399;-89
2021/10/22 07:31:15;;;;;;;;;;;;;;;;;;4861437;29;19928;-87
2021/10/22 07:33:44;;;;;;;;;;;;;;;;;;4861070;29;20434;-90
2021/10/22 07:36:13;;;;;;;;;;;;;;;;;;4860714;29;20276;-91
2021/10/22 07:38:43;;;;;;;;;;;;;;;;;;4860536;29;19928;-87
2021/10/22 07:41:12;;;;;;;;;;;;;;;;;;4845427;29;19935;-92
2021/10/22 07:43:41;;;;;;;;;;;;;;;;;;4860866;29;19939;-93
2021/10/22 07:46:09;;;;;;;;;;;;;;;;;;4860417;29;19929;-92
2021/10/22 07:48:38;;;;;;;;;;;;;;;;;;4875894;29;19928;-86
2021/10/22 07:51:07;;;;;;;;;;;;;;;;;;4860620;29;19936;-90
2021/10/22 07:53:35;;;;;;;;;;;;;;;;;;4860720;29;19951;-92
2021/10/22 07:56:05;;;;;;;;;;;;;;;;;;4845282;29;19939;-91
2021/10/22 07:58:33;;;;;;;;;;;;;;;;;;4846186;29;19939;-91
2021/10/22 08:01:02;;;;;;;;;;;;;;;;;;4860964;29;19928;-90
2021/10/22 08:03:32;;;;;;;;;;;;;;;;;;4859938;29;19936;-93
2021/10/22 08:06:01;;;;;;;;;;;;;;;;;;4861502;29;19929;-92
2021/10/22 08:08:30;;;;;;;;;;;;;;;;;;4839221;29;19929;-92
2021/10/22 08:10:58;;;;;;;;;;;;;;;;;;4841250;29;19936;-92
2021/10/22 08:13:28;;;;;;;;;;;;;;;;;;4826659;29;19928;-91
2021/10/22 08:15:57;;;;;;;;;;;;;;;;;;4826475;29;19928;-91
2021/10/22 08:18:26;;;;;;;;;;;;;;;;;;4829375;29;19936;-92
2021/10/22 08:20:57;;;;;;;;;;;;;;;;;;4851463;29;19933;-92
2021/10/22 08:23:25;;;;;;;;;;;;;;;;;;4845144;29;19951;-90
2021/10/22 08:25:54;;;;;;;;;;;;;;;;;;4859811;29;20405;-90
2021/10/22 08:28:22;;;;;;;;;;;;;;;;;;4844571;29;19935;-87
2021/10/22 08:30:59;;;;;;;;;;;;;;;;;;4844478;29;20323;-88
2021/10/22 08:33:27;;;;;;;;;;;;;;;;;;4854035;29;20405;-88
2021/10/22 08:35:57;;;;;;;;;;;;;;;;;;4843122;29;20389;-84
2021/10/22 08:38:25;;;;;;;;;;;;;;;;;;4854295;29;19928;-86
2021/10/22 08:40:54;;;;;;;;;;;;;;;;;;4844521;29;19932;-90
2021/10/22 08:43:24;;;;;;;;;;;;;;;;;;4859327;29;20006;-90
2021/10/22 08:45:54;;;;;;;;;;;;;;;;;;4844095;29;19935;-91
2021/10/22 08:48:22;;;;;;;;;;;;;;;;;;4859196;29;19935;-91
2021/10/22 08:50:51;;;;;;;;;;;;;;;;;;4844080;29;19943;-91
2021/10/22 08:53:19;;;;;;;;;;;;;;;;;;4843963;29;19929;-90
2021/10/22 08:55:47;;;;;;;;;;;;;;;;;;4841733;29;19928;-84
2021/10/22 08:58:18;;;;;;;;;;;;;;;;;;4843988;29;19939;-87
2021/10/22 09:00:47;;;;;;;;;;;;;;;;;;4856350;29;19928;-89
2021/10/22 09:03:18;;;;;;;;;;;;;;;;;;4872353;29;19939;-87
2021/10/22 09:05:56;;;;;;;;;;;;;;;;;;4848369;29;19936;-84
2021/10/22 09:08:29;;;;;;;;;;;;;;;;;;4843794;29;19932;-90
2021/10/22 09:10:57;;;;;;;;;;;;;;;;;;4843708;29;20281;-87
2021/10/22 09:13:29;;;;;;;;;;;;;;;;;;4844655;29;19932;-88
2021/10/22 09:15:58;;;;;;;;;;;;;;;;;;4843031;29;20346;-87
2021/10/22 09:18:30;;;;;;;;;;;;;;;;;;4836169;29;19928;-89
2021/10/22 09:20:59;;;;;;;;;;;;;;;;;;4841488;29;20406;-91
2021/10/22 09:23:28;;;;;;;;;;;;;;;;;;4841750;29;19932;-91
2021/10/22 09:26:13;;;;;;;;;;;;;;;;;;4841608;29;19935;-88
2021/10/22 09:28:42;;;;;;;;;;;;;;;;;;4842962;29;19935;-89
2021/10/22 09:31:11;;;;;;;;;;;;;;;;;;4859954;29;20395;-90
2021/10/22 09:33:51;;;;;;;;;;;;;;;;;;4847285;29;19939;-89
2021/10/22 09:36:32;;;;;;;;;;;;;;;;;;4859237;29;19928;-92
2021/10/22 09:39:05;;;;;;;;;;;;;;;;;;4846503;29;19928;-89
2021/10/22 09:41:34;;;;;;;;;;;;;;;;;;4863300;29;19935;-88
2021/10/22 09:44:17;;;;;;;;;;;;;;;;;;4858495;29;20315;-89
2021/10/22 09:46:45;;;;;;;;;;;;;;;;;;4856769;29;19932;-87
2021/10/22 09:49:24;;;;;;;;;;;;;;;;;;4838223;29;19928;-91
2021/10/22 09:51:54;;;;;;;;;;;;;;;;;;4842789;29;19935;-87
2021/10/22 09:54:28;;;;;;;;;;;;;;;;;;4841958;29;19928;-86
2021/10/22 09:56:57;;;;;;;;;;;;;;;;;;4855941;29;19932;-87
2021/10/22 09:59:26;;;;;;;;;;;;;;;;;;4845456;29;19928;-88
2021/10/22 10:01:55;;;;;;;;;;;;;;;;;;4839345;29;19936;-86
2021/10/22 10:04:25;;;;;;;;;;;;;;;;;;4839962;29;19936;-87
2021/10/22 10:07:01;;;;;;;;;;;;;;;;;;4840360;29;19929;-89
2021/10/22 10:09:29;;;;;;;;;;;;;;;;;;4827979;29;19935;-88
2021/10/22 10:11:58;;;;;;;;;;;;;;;;;;4830200;29;20407;-85
2021/10/22 10:14:27;;;;;;;;;;;;;;;;;;4842439;29;19932;-84
2021/10/22 10:16:57;;;;;;;;;;;;;;;;;;4857838;29;19936;-88
2021/10/22 10:19:33;;;;;;;;;;;;;;;;;;4874988;29;19935;-87
2021/10/22 10:22:02;;;;;;;;;;;;;;;;;;4838228;29;19940;-89
2021/10/22 10:24:31;;;;;;;;;;;;;;;;;;4838010;29;19935;-89
2021/10/22 10:27:04;;;;;;;;;;;;;;;;;;4842892;29;19935;-90
2021/10/22 10:29:33;;;;;;;;;;;;;;;;;;4847710;29;19935;-91
2021/10/22 10:32:02;;;;;;;;;;;;;;;;;;4846773;29;19936;-90
2021/10/22 10:34:39;;;;;;;;;;;;;;;;;;4828690;29;20394;-89
2021/10/22 10:37:31;;;;;;;;;;;;;;;;;;4841375;29;19932;-90
2021/10/22 10:40:00;;;;;;;;;;;;;;;;;;4830791;29;20535;-90
2021/10/22 10:42:33;;;;;;;;;;;;;;;;;;4838060;29;19940;-93
2021/10/22 10:45:02;;;;;;;;;;;;;;;;;;4867090;29;19923;-93
2021/10/22 10:47:43;;;;;;;;;;;;;;;;;;4835800;29;19928;-89
2021/10/22 10:50:14;;;;;;;;;;;;;;;;;;4844167;29;19929;-91
2021/10/22 10:52:44;;;;;;;;;;;;;;;;;;4843639;29;19928;-88
2021/10/22 10:55:13;;;;;;;;;;;;;;;;;;4843346;29;19935;-91
2021/10/22 10:57:46;;;;;;;;;;;;;;;;;;4859957;29;20395;-88
2021/10/22 11:00:16;;;;;;;;;;;;;;;;;;4843690;29;20418;-91
2021/10/22 11:03:03;;;;;;;;;;;;;;;;;;4852212;29;19928;-89
2021/10/22 11:05:50;;;;;;;;;;;;;;;;;;4861339;29;19928;-91
2021/10/22 11:08:22;;;;;;;;;;;;;;;;;;4844115;29;19935;-91
2021/10/22 11:10:58;;;;;;;;;;;;;;;;;;4862675;29;19950;-90
2021/10/22 11:13:30;;;;;;;;;;;;;;;;;;4867148;29;20011;-90
2021/10/22 11:15:59;;;;;;;;;;;;;;;;;;4856632;29;19944;-91
2021/10/22 11:18:27;;;;;;;;;;;;;;;;;;4839784;29;19928;-91
2021/10/22 11:21:05;;;;;;;;;;;;;;;;;;4860466;29;19932;-89
2021/10/22 11:23:38;;;;;;;;;;;;;;;;;;4851531;29;19929;-90
2021/10/22 11:26:06;;;;;;;;;;;;;;;;;;4845276;29;19928;-88
2021/10/22 11:28:34;;;;;;;;;;;;;;;;;;4848953;29;19929;-89
2021/10/22 11:31:03;;;;;;;;;;;;;;;;;;4832936;29;19942;-88
2021/10/22 11:33:32;;;;;;;;;;;;;;;;;;4858254;29;19935;-89
2021/10/22 11:36:00;;;;;;;;;;;;;;;;;;4835048;29;19928;-90
2021/10/22 11:38:28;;;;;;;;;;;;;;;;;;4861146;29;19948;-87
2021/10/22 11:40:58;;;;;;;;;;;;;;;;;;4845529;29;19935;-85
2021/10/22 11:43:27;;;;;;;;;;;;;;;;;;4840956;29;19928;-89
2021/10/22 11:45:55;;;;;;;;;;;;;;;;;;4836600;29;19935;-87
2021/10/22 11:48:31;;;;;;;;;;;;;;;;;;4859941;29;19928;-87
2021/10/22 11:51:00;;;;;;;;;;;;;;;;;;4856129;29;20335;-91
2021/10/22 11:53:28;;;;;;;;;;;;;;;;;;4872325;29;19928;-90
2021/10/22 12:56:40;;;;;;;;;;;;;;;;;;6169810;22;2029998;-89
2021/10/22 12:59:10;;;;;;;;;;;;;;;;;;6223787;23;19919;-90
2021/10/22 13:01:39;;;;;;;;;;;;;;;;;;6224946;23;19919;-90
2021/10/22 13:04:09;;;;;;;;;;;;;;;;;;6225260;23;20350;-90
2021/10/22 13:06:47;;;;;;;;;;;;;;;;;;6222289;23;19927;-90
2021/10/22 13:09:35;;;;;;;;;;;;;;;;;;6218095;23;20265;-89
2021/10/22 13:15:23;;;;;;;;;;;;;;;;;;6218977;23;20353;-91
2021/10/22 13:20:43;;;;;;;;;;;;;;;;;;6219869;22;19927;-91
2021/10/22 13:23:13;;;;;;;;;;;;;;;;;;6219370;23;19920;-92
2021/10/22 13:25:44;;;;;;;;;;;;;;;;;;6222953;23;20265;-92
2021/10/22 13:28:16;;;;;;;;;;;;;;;;;;6220937;23;20353;-93
2021/10/22 13:30:51;;;;;;;;;;;;;;;;;;6219940;23;20265;-91
2021/10/22 13:33:27;;;;;;;;;;;;;;;;;;6220211;23;19920;-92
2021/10/22 13:35:55;;;;;;;;;;;;;;;;;;6221006;23;19943;-92
2021/10/22 13:38:24;;;;;;;;;;;;;;;;;;6222435;23;20356;-92
2021/10/22 13:40:52;;;;;;;;;;;;;;;;;;6224607;23;19920;-93
2021/10/22 13:43:24;;;;;;;;;;;;;;;;;;6236668;23;19919;-92
2021/10/22 13:45:56;;;;;;;;;;;;;;;;;;6225933;23;20338;-92
2021/10/22 13:48:25;;;;;;;;;;;;;;;;;;6221287;23;19926;-93
2021/10/22 13:50:53;;;;;;;;;;;;;;;;;;6221469;23;19919;-92
2021/10/22 13:53:24;;;;;;;;;;;;;;;;;;6225993;23;19926;-92
2021/10/22 13:55:52;;;;;;;;;;;;;;;;;;6227970;23;19930;-94
2021/10/22 13:58:22;;;;;;;;;;;;;;;;;;6234708;23;19926;-93
2021/10/22 14:00:52;;;;;;;;;;;;;;;;;;6230411;23;19926;-93
2021/10/22 14:03:21;;;;;;;;;;;;;;;;;;6245612;22;19924;-94
2021/10/22 14:06:07;;;;;;;;;;;;;;;;;;6246561;22;19947;-94
2021/10/22 14:08:35;;;;;;;;;;;;;;;;;;6245541;23;19926;-94
2021/10/22 14:11:06;;;;;;;;;;;;;;;;;;6239238;23;19929;-93
2021/10/22 14:13:39;;;;;;;;;;;;;;;;;;6247244;22;19947;-95
2021/10/22 14:24:47;;;;;;;;;;;;;;;;;;6241183;23;19919;-93
2021/10/22 14:30:09;;;;;;;;;;;;;;;;;;6238121;23;19920;-96
2021/10/22 14:32:56;;;;;;;;;;;;;;;;;;6242755;23;19926;-93
2021/10/22 14:35:30;;;;;;;;;;;;;;;;;;6243738;23;19929;-94
2021/10/22 14:38:11;;;;;;;;;;;;;;;;;;;;;
2021/10/22 14:40:47;;;;;;;;;;;;;;;;;;6243755;22;19919;-93
2021/10/22 14:43:49;;;;;;;;;;;;;;;;;;6245322;23;19968;-94
2021/10/22 14:46:31;;;;;;;;;;;;;;;;;;6246334;22;19948;-94
2021/10/22 14:49:05;;;;;;;;;;;;;;;;;;6245002;22;19955;-93
2021/10/22 14:51:55;;;;;;;;;;;;;;;;;;6245104;23;19952;-93
2021/10/22 14:54:31;;;;;;;;;;;;;;;;;;6246490;23;19959;-93
2021/10/22 14:57:00;;;;;;;;;;;;;;;;;;6258647;23;20338;-92
2021/10/22 14:59:32;;;;;;;;;;;;;;;;;;6226596;23;19930;-92
2021/10/22 15:02:04;;;;;;;;;;;;;;;;;;6232436;23;19919;-92
2021/10/22 15:04:34;;;;;;;;;;;;;;;;;;6232152;23;19945;-94
2021/10/22 15:07:03;;;;;;;;;;;;;;;;;;6236502;23;19920;-93
2021/10/22 15:09:32;;;;;;;;;;;;;;;;;;6241160;23;19926;-94
2021/10/22 15:12:01;;;;;;;;;;;;;;;;;;6238190;22;19920;-94
2021/10/22 15:14:32;;;;;;;;;;;;;;;;;;6233849;23;19919;-92
2021/10/22 15:17:01;;;;;;;;;;;;;;;;;;6233676;23;19919;-93
2021/10/22 15:19:29;;;;;;;;;;;;;;;;;;6241765;22;19907;-94
2021/10/22 15:21:59;;;;;;;;;;;;;;;;;;6248035;22;19943;-94
2021/10/22 15:24:27;;;;;;;;;;;;;;;;;;6248513;22;19951;-94
2021/10/22 15:26:58;;;;;;;;;;;;;;;;;;6249148;22;19968;-94
2021/10/22 15:29:34;;;;;;;;;;;;;;;;;;6250965;22;19951;-94
2021/10/22 15:32:03;;;;;;;;;;;;;;;;;;6239605;22;19920;-93
2021/10/22 15:34:33;;;;;;;;;;;;;;;;;;6245108;23;19908;-93
2021/10/22 15:37:03;;;;;;;;;;;;;;;;;;6246352;22;19914;-93
2021/10/22 15:39:31;;;;;;;;;;;;;;;;;;6242743;22;19919;-94
2021/10/22 15:42:00;;;;;;;;;;;;;;;;;;6237796;23;19979;-92
2021/10/22 15:44:28;;;;;;;;;;;;;;;;;;6239854;23;20368;-92
2021/10/22 15:47:02;;;;;;;;;;;;;;;;;;6239102;23;19920;-93
2021/10/22 15:49:31;;;;;;;;;;;;;;;;;;6239299;23;19926;-93
2021/10/22 15:52:01;;;;;;;;;;;;;;;;;;6243917;23;19926;-94
2021/10/22 15:54:51;;;;;;;;;;;;;;;;;;6248423;22;19955;-95
2021/10/22 15:57:20;;;;;;;;;;;;;;;;;;6251900;22;19915;-95
2021/10/22 15:59:48;;;;;;;;;;;;;;;;;;6252293;22;19947;-94
2021/10/22 16:02:17;;;;;;;;;;;;;;;;;;6252421;22;19983;-95
2021/10/22 16:04:45;;;;;;;;;;;;;;;;;;6252183;22;19963;-94
2021/10/22 16:07:18;;;;;;;;;;;;;;;;;;6252172;22;19977;-95
2021/10/22 16:09:57;;;;;;;;;;;;;;;;;;6252296;22;19956;-95
2021/10/22 16:12:37;;;;;;;;;;;;;;;;;;6251005;22;19951;-92
2021/10/22 16:15:09;;;;;;;;;;;;;;;;;;6250140;22;19943;-93
2021/10/22 16:17:37;;;;;;;;;;;;;;;;;;6242082;22;19923;-90
2021/10/22 16:20:10;;;;;;;;;;;;;;;;;;6235560;22;19919;-91
2021/10/22 16:22:39;;;;;;;;;;;;;;;;;;6242468;22;19908;-95
